臺北終端管制區 - 桃園掃描雷達席

METAR RCTP 281330Z 05009KT 9999 FEW020 26/22 Q1009 NOSIG RMK A2981=

站台狀態:Online
最後更新:2021-09-28 22:00:01